Time;durP1;ratioP1;P1;durP2;ratioP2;P2;SDS_P1;SDS_P2;PMS_P1;PMS_P2;Temp;Humidity;BMP_temperature;BMP_pressure;BME280_temperature;BME280_humidity;BME280_pressure;Samples;Min_cycle;Max_cycle;Signal;HPM_P1;HPM_P2
2021/06/27 00:00:36;;;;;;;;;;;;;;;24.15;29.38;82550.81;2070429;28;861;-67
2021/06/27 00:01:36;;;;;;;;;;;;;;;24.15;29.02;82554.81;2070689;28;857;-68
2021/06/27 00:02:36;;;;;;;;;;;;;;;24.15;29.35;82558.81;2078748;28;885;-68
2021/06/27 00:03:36;;;;;;;;;;;;;;;24.15;29.17;82552.81;2079087;28;952;-66
2021/06/27 00:04:36;;;;;;;;;;;;;;;24.15;29.21;82566.81;2079526;28;902;-67
2021/06/27 00:05:37;;;;;;;;;;;;;;;24.15;29.28;82542.81;2078062;28;2442;-67
2021/06/27 00:06:37;;;;;;;;;;;;;;;24.15;29.34;82526.81;2078477;28;1012;-68
2021/06/27 00:07:37;;;;;;;;;;;;;;;24.15;29.37;82558.81;2078978;28;1025;-67
2021/06/27 00:08:38;;;;;;;;;;;;;;;24.15;29.18;82570.81;2078590;28;1252;-67
2021/06/27 00:09:40;;;;;;;;;;;;;;;24.15;29.08;82580.81;2070834;28;790;-67
2021/06/27 00:10:41;;;;;;;;;;;;;;;24.15;29.26;82574.81;2078912;28;857;-67
2021/06/27 00:11:41;;;;;;;;;;;;;;;24.15;29.44;82620.84;2070951;28;995;-67
2021/06/27 00:12:41;;;;;;;;;;;;;;;24.15;29.15;82608.84;2078797;28;743;-67
2021/06/27 00:13:42;;;;;;;;;;;;;;;24.15;29.36;82614.84;2079068;28;856;-67
2021/06/27 00:14:42;;;;;;;;;;;;;;;24.15;29.30;82602.81;2079285;28;1011;-67
2021/06/27 00:15:44;;;;;;;;;;;;;;;24.15;29.28;82560.81;2070549;28;1209;-68
2021/06/27 00:16:44;;;;;;;;;;;;;;;24.15;29.14;82570.81;2062499;28;870;-67
2021/06/27 00:17:44;;;;;;;;;;;;;;;24.15;29.43;82592.81;2070634;28;1919;-67
2021/06/27 00:18:44;;;;;;;;;;;;;;;24.15;29.19;82570.81;2070490;28;767;-67
2021/06/27 00:19:44;;;;;;;;;;;;;;;24.15;29.51;82606.84;2070846;28;1216;-67
2021/06/27 00:20:45;;;;;;;;;;;;;;;24.15;29.24;82602.81;2078795;28;884;-67
2021/06/27 00:21:46;;;;;;;;;;;;;;;24.15;29.46;82662.84;2078843;28;1000;-67
2021/06/27 00:22:46;;;;;;;;;;;;;;;24.15;29.35;82616.84;2078879;28;1329;-66
2021/06/27 00:23:47;;;;;;;;;;;;;;;24.15;29.46;82634.84;2078442;28;593;-67
2021/06/27 00:24:47;;;;;;;;;;;;;;;24.15;29.43;82660.84;2078822;28;857;-67
2021/06/27 00:25:47;;;;;;;;;;;;;;;24.15;29.58;82646.84;2079199;28;1278;-67
2021/06/27 00:26:47;;;;;;;;;;;;;;;24.15;29.47;82648.84;2079124;28;922;-67
2021/06/27 00:27:47;;;;;;;;;;;;;;;24.15;29.28;82620.84;2070799;28;711;-67
2021/06/27 00:28:48;;;;;;;;;;;;;;;24.15;29.56;82670.84;2078951;28;1021;-67
2021/06/27 00:29:48;;;;;;;;;;;;;;;24.15;29.28;82618.84;2079206;28;901;-67
2021/06/27 00:30:49;;;;;;;;;;;;;;;24.15;29.41;82646.84;2079530;28;877;-67
2021/06/27 00:31:50;;;;;;;;;;;;;;;24.15;29.43;82632.84;2079384;28;852;-67
2021/06/27 00:32:50;;;;;;;;;;;;;;;24.15;29.36;82638.84;2079689;28;845;-67
2021/06/27 00:33:50;;;;;;;;;;;;;;;24.15;29.51;82632.84;2079333;28;730;-67
2021/06/27 00:34:50;;;;;;;;;;;;;;;24.15;29.54;82630.84;2080195;28;829;-67
2021/06/27 00:35:51;;;;;;;;;;;;;;;24.15;29.53;82628.84;2070698;28;1184;-67
2021/06/27 00:36:52;;;;;;;;;;;;;;;24.15;29.25;82634.84;2071130;28;814;-68
2021/06/27 00:37:52;;;;;;;;;;;;;;;24.15;29.42;82636.84;2079801;28;1963;-67
2021/06/27 00:38:52;;;;;;;;;;;;;;;24.15;29.46;82654.84;2071346;28;845;-67
2021/06/27 00:39:52;;;;;;;;;;;;;;;24.15;29.47;82668.84;2071190;28;864;-67
2021/06/27 00:40:52;;;;;;;;;;;;;;;24.15;29.49;82682.84;2080200;28;573;-67
2021/06/27 00:41:53;;;;;;;;;;;;;;;24.15;29.55;82682.84;2079724;28;1091;-67
2021/06/27 00:42:53;;;;;;;;;;;;;;;24.15;29.40;82668.84;2080240;28;652;-67
2021/06/27 00:43:53;;;;;;;;;;;;;;;24.15;29.48;82642.84;2079388;28;976;-67
2021/06/27 00:44:53;;;;;;;;;;;;;;;24.15;29.46;82652.84;2080334;28;901;-67
2021/06/27 00:45:53;;;;;;;;;;;;;;;24.15;29.37;82660.84;2080156;28;1211;-68
2021/06/27 00:46:54;;;;;;;;;;;;;;;24.15;29.54;82668.84;2072579;28;845;-67
2021/06/27 00:47:54;;;;;;;;;;;;;;;24.15;29.58;82684.84;2081908;28;812;-67
2021/06/27 00:48:54;;;;;;;;;;;;;;;24.15;29.50;82666.84;2073753;28;880;-67
2021/06/27 00:49:55;;;;;;;;;;;;;;;24.15;29.54;82674.84;2073625;28;1480;-68
2021/06/27 00:50:55;;;;;;;;;;;;;;;24.15;29.42;82696.84;2082235;28;896;-67
2021/06/27 00:51:55;;;;;;;;;;;;;;;24.15;29.53;82688.84;2082544;28;988;-68
2021/06/27 00:52:56;;;;;;;;;;;;;;;24.15;29.47;82730.84;2074218;28;906;-67
2021/06/27 00:53:56;;;;;;;;;;;;;;;24.15;29.58;82692.84;2073468;28;1223;-67
2021/06/27 00:54:56;;;;;;;;;;;;;;;24.15;29.61;82710.84;2074352;28;801;-67
2021/06/27 00:55:56;;;;;;;;;;;;;;;24.15;29.52;82700.84;2082183;28;1212;-67
2021/06/27 00:56:56;;;;;;;;;;;;;;;24.15;29.62;82700.84;2082985;28;920;-67
2021/06/27 00:57:57;;;;;;;;;;;;;;;24.15;29.61;82664.84;2082192;28;1919;-67
2021/06/27 00:58:57;;;;;;;;;;;;;;;24.15;29.42;82682.84;2074067;28;800;-67
2021/06/27 00:59:57;;;;;;;;;;;;;;;24.15;29.46;82706.84;2082451;28;988;-67
2021/06/27 01:00:57;;;;;;;;;;;;;;;24.15;29.49;82720.84;2073734;28;899;-68
2021/06/27 01:01:58;;;;;;;;;;;;;;;24.15;29.70;82708.84;2074069;28;857;-67
2021/06/27 01:02:58;;;;;;;;;;;;;;;24.15;29.65;82690.84;2087262;28;1744;-67
2021/06/27 01:03:58;;;;;;;;;;;;;;;24.15;29.43;82732.84;2089956;28;866;-67
2021/06/27 01:04:58;;;;;;;;;;;;;;;24.15;29.52;82696.84;2081911;28;735;-67
2021/06/27 01:05:58;;;;;;;;;;;;;;;24.15;29.51;82652.84;2082314;28;1313;-68
2021/06/27 01:06:58;;;;;;;;;;;;;;;24.15;29.42;82724.84;2082174;28;928;-67
2021/06/27 01:07:59;;;;;;;;;;;;;;;24.15;29.58;82724.84;2090560;28;742;-67
2021/06/27 01:08:59;;;;;;;;;;;;;;;24.15;29.60;82734.84;2081986;28;775;-67
2021/06/27 01:09:59;;;;;;;;;;;;;;;24.15;29.53;82766.84;2074451;28;1016;-68
2021/06/27 01:10:59;;;;;;;;;;;;;;;24.15;29.55;82726.84;2081841;28;901;-68
2021/06/27 01:12:00;;;;;;;;;;;;;;;24.15;29.70;82736.84;2082149;28;865;-68
2021/06/27 01:13:00;;;;;;;;;;;;;;;24.15;29.56;82736.84;2090077;28;854;-67
2021/06/27 01:14:01;;;;;;;;;;;;;;;24.15;29.62;82746.84;2081157;28;830;-68
2021/06/27 01:15:02;;;;;;;;;;;;;;;24.15;29.59;82750.84;2082412;28;1225;-67
2021/06/27 01:16:02;;;;;;;;;;;;;;;24.15;29.67;82764.84;2090729;28;908;-67
2021/06/27 01:17:03;;;;;;;;;;;;;;;24.15;29.55;82746.84;2090204;28;826;-67
2021/06/27 01:18:03;;;;;;;;;;;;;;;24.15;29.48;82740.84;2082159;28;1963;-67
2021/06/27 01:19:03;;;;;;;;;;;;;;;24.15;29.43;82734.84;2065346;28;932;-67
2021/06/27 01:20:06;;;;;;;;;;;;;;;24.15;29.40;82714.84;2081455;28;786;-67
2021/06/27 01:21:06;;;;;;;;;;;;;;;24.15;29.47;82756.84;2081713;28;1027;-67
2021/06/27 01:22:07;;;;;;;;;;;;;;;24.15;29.45;82776.84;2081681;28;1031;-67
2021/06/27 01:23:11;;;;;;;;;;;;;;;24.15;29.64;82804.88;2089751;28;716;-67
2021/06/27 01:24:11;;;;;;;;;;;;;;;24.15;29.54;82798.84;2081743;28;1274;-67
2021/06/27 01:25:11;;;;;;;;;;;;;;;24.15;29.50;82764.84;2082713;28;1304;-67
2021/06/27 01:26:11;;;;;;;;;;;;;;;24.15;29.50;82752.84;2090888;28;1004;-67
2021/06/27 01:27:12;;;;;;;;;;;;;;;24.15;29.51;82798.84;2090982;28;948;-67
2021/06/27 01:28:12;;;;;;;;;;;;;;;24.15;29.44;82774.84;2090866;28;790;-67
2021/06/27 01:29:12;;;;;;;;;;;;;;;24.15;29.42;82772.84;2082556;28;880;-67
2021/06/27 01:30:12;;;;;;;;;;;;;;;24.15;29.54;82786.84;2082377;28;900;-67
2021/06/27 01:31:13;;;;;;;;;;;;;;;24.15;29.49;82782.84;2090039;28;1303;-67
2021/06/27 01:32:13;;;;;;;;;;;;;;;24.15;29.59;82810.88;2082114;28;916;-67
2021/06/27 01:33:14;;;;;;;;;;;;;;;24.15;29.54;82798.84;2082080;28;865;-67
2021/06/27 01:34:14;;;;;;;;;;;;;;;24.15;29.49;82798.84;2089755;28;908;-68
2021/06/27 01:35:15;;;;;;;;;;;;;;;24.15;29.63;82800.84;2090353;28;1278;-67
2021/06/27 01:36:15;;;;;;;;;;;;;;;24.15;29.49;82768.84;2090433;28;1067;-67
2021/06/27 01:37:15;;;;;;;;;;;;;;;24.15;29.50;82838.88;2090311;28;976;-67
2021/06/27 01:38:16;;;;;;;;;;;;;;;24.15;29.51;82810.88;2090226;28;1964;-67
2021/06/27 01:39:16;;;;;;;;;;;;;;;24.15;29.40;82816.88;2090158;28;869;-68
2021/06/27 01:40:16;;;;;;;;;;;;;;;24.15;29.50;82816.88;2090358;28;818;-68
2021/06/27 01:41:17;;;;;;;;;;;;;;;24.15;29.38;82822.88;2082243;28;1239;-68
2021/06/27 01:42:17;;;;;;;;;;;;;;;24.15;29.72;82834.88;2065097;28;1478;-66
2021/06/27 01:43:18;;;;;;;;;;;;;;;24.15;29.51;82818.88;2073812;28;932;-67
2021/06/27 01:44:18;;;;;;;;;;;;;;;24.15;29.56;82810.88;2081602;28;762;-68
2021/06/27 01:45:22;;;;;;;;;;;;;;;24.15;29.37;82822.88;2090199;28;1296;-68
2021/06/27 01:46:22;;;;;;;;;;;;;;;24.15;29.50;82828.88;2097939;28;1028;-68
2021/06/27 01:47:26;;;;;;;;;;;;;;;24.15;29.43;82836.88;2090967;28;595;-67
2021/06/27 01:48:26;;;;;;;;;;;;;;;24.15;29.48;82820.88;2089706;28;1011;-68
2021/06/27 01:49:27;;;;;;;;;;;;;;;24.15;29.43;82826.88;2090026;28;999;-68
2021/06/27 01:50:27;;;;;;;;;;;;;;;24.15;29.23;82808.88;2090185;28;888;-68
2021/06/27 01:51:27;;;;;;;;;;;;;;;24.15;29.40;82860.88;2090822;28;1010;-67
2021/06/27 01:52:27;;;;;;;;;;;;;;;24.15;29.48;82828.88;2090132;28;828;-68
2021/06/27 01:53:28;;;;;;;;;;;;;;;24.15;29.49;82842.88;2081121;28;1398;-67
2021/06/27 01:54:28;;;;;;;;;;;;;;;24.15;29.55;82848.88;2073438;28;1289;-68
2021/06/27 01:55:29;;;;;;;;;;;;;;;24.15;29.44;82874.88;2073877;28;1304;-67
2021/06/27 01:56:29;;;;;;;;;;;;;;;24.15;29.62;82902.88;2073350;28;834;-68
2021/06/27 01:57:29;;;;;;;;;;;;;;;24.15;29.48;82894.88;2081530;28;1894;-68
2021/06/27 01:58:30;;;;;;;;;;;;;;;24.15;29.49;82874.88;2088923;28;943;-67
2021/06/27 01:59:30;;;;;;;;;;;;;;;24.15;29.37;82856.88;2089908;28;1038;-68
2021/06/27 02:00:30;;;;;;;;;;;;;;;24.15;29.49;82852.88;2090108;28;904;-67
2021/06/27 02:01:31;;;;;;;;;;;;;;;24.15;29.49;82868.88;2089906;28;884;-68
2021/06/27 02:02:31;;;;;;;;;;;;;;;24.15;29.46;82904.88;2089455;28;861;-68
2021/06/27 02:03:31;;;;;;;;;;;;;;;24.15;29.45;82880.88;2088811;28;983;-67
2021/06/27 02:04:32;;;;;;;;;;;;;;;24.15;29.46;82908.88;2089502;28;881;-67
2021/06/27 02:05:32;;;;;;;;;;;;;;;24.15;29.44;82860.88;2089990;28;1278;-68
2021/06/27 02:06:36;;;;;;;;;;;;;;;24.15;29.51;82890.88;2090181;28;1428;-68
2021/06/27 02:07:37;;;;;;;;;;;;;;;24.15;29.46;82912.88;2089443;28;987;-67
2021/06/27 02:08:38;;;;;;;;;;;;;;;24.15;29.50;82908.88;2081302;28;1349;-67
2021/06/27 02:09:40;;;;;;;;;;;;;;;24.15;29.65;82888.88;2089471;28;995;-67
2021/06/27 02:10:40;;;;;;;;;;;;;;;24.15;29.53;82884.88;2080883;28;1059;-67
2021/06/27 02:11:40;;;;;;;;;;;;;;;24.15;29.55;82910.88;2081168;28;804;-67
2021/06/27 02:12:40;;;;;;;;;;;;;;;24.15;29.46;82910.88;2090057;28;864;-67
2021/06/27 02:13:40;;;;;;;;;;;;;;;24.15;29.46;82880.88;2089571;28;883;-67
2021/06/27 02:14:41;;;;;;;;;;;;;;;24.15;29.35;82906.88;2090075;28;1003;-67
2021/06/27 02:15:41;;;;;;;;;;;;;;;24.15;29.33;82864.88;2089631;28;1235;-67
2021/06/27 02:16:41;;;;;;;;;;;;;;;24.15;29.40;82918.88;2081906;28;904;-68
2021/06/27 02:17:52;;;;;;;;;;;;;;;24.15;29.54;82900.88;2089573;28;1967;-67
2021/06/27 02:18:52;;;;;;;;;;;;;;;24.15;29.56;82876.88;2081622;28;1219;-68
2021/06/27 02:19:54;;;;;;;;;;;;;;;24.15;29.68;82892.88;2073272;28;1516;-67
2021/06/27 02:20:54;;;;;;;;;;;;;;;24.15;29.49;82904.88;2081585;28;884;-68
2021/06/27 02:21:54;;;;;;;;;;;;;;;24.15;29.44;82888.88;2089447;28;992;-67
2021/06/27 02:22:55;;;;;;;;;;;;;;;24.15;29.56;82896.88;2090189;28;936;-68
2021/06/27 02:23:55;;;;;;;;;;;;;;;24.15;29.61;82924.88;2089266;28;785;-67
2021/06/27 02:24:55;;;;;;;;;;;;;;;24.15;29.58;82908.88;2089727;28;791;-67
2021/06/27 02:25:55;;;;;;;;;;;;;;;24.15;29.58;82888.88;2089579;28;1147;-67
2021/06/27 02:26:55;;;;;;;;;;;;;;;24.15;29.56;82906.88;2090149;28;952;-68
2021/06/27 02:27:55;;;;;;;;;;;;;;;24.15;29.54;82930.88;2090408;28;987;-67
2021/06/27 02:28:59;;;;;;;;;;;;;;;24.15;29.54;82934.88;2090730;28;928;-67
2021/06/27 02:29:59;;;;;;;;;;;;;;;24.15;29.72;82964.91;2090479;28;962;-67
2021/06/27 02:30:59;;;;;;;;;;;;;;;24.15;29.69;82980.91;2090481;28;674;-67
2021/06/27 02:31:59;;;;;;;;;;;;;;;24.15;29.66;82954.91;2089310;28;984;-67
2021/06/27 02:33:00;;;;;;;;;;;;;;;24.15;29.74;82938.88;2081537;28;1053;-68
2021/06/27 02:34:00;;;;;;;;;;;;;;;24.15;29.63;82962.91;2089154;28;1000;-67
2021/06/27 02:35:00;;;;;;;;;;;;;;;24.15;29.58;82928.88;2090567;28;1010;-68
2021/06/27 02:36:00;;;;;;;;;;;;;;;24.15;29.55;82928.88;2089878;28;1219;-68
2021/06/27 02:37:00;;;;;;;;;;;;;;;24.15;29.49;82936.88;2090339;28;1092;-68
2021/06/27 02:38:01;;;;;;;;;;;;;;;24.15;29.62;82920.88;2089201;28;1902;-68
2021/06/27 02:39:01;;;;;;;;;;;;;;;24.15;29.61;82978.91;2089151;28;884;-67
2021/06/27 02:40:01;;;;;;;;;;;;;;;24.15;29.68;82962.91;2089479;28;1428;-68
2021/06/27 02:41:01;;;;;;;;;;;;;;;24.15;29.73;83010.91;2089693;28;813;-67
2021/06/27 02:42:02;;;;;;;;;;;;;;;24.15;29.57;82966.91;2089806;28;951;-68
2021/06/27 02:43:02;;;;;;;;;;;;;;;24.15;29.72;82968.91;2089386;28;1030;-68
2021/06/27 02:44:05;;;;;;;;;;;;;;;24.15;29.46;82992.91;2089174;28;1066;-68
2021/06/27 02:45:06;;;;;;;;;;;;;;;24.15;29.68;82982.91;2089415;28;1219;-68
2021/06/27 02:46:06;;;;;;;;;;;;;;;24.15;29.44;82976.91;2081327;28;1203;-67
2021/06/27 02:47:06;;;;;;;;;;;;;;;24.15;29.48;82976.91;2072884;28;1224;-67
2021/06/27 02:48:06;;;;;;;;;;;;;;;24.15;29.43;83000.91;2089158;28;801;-67
2021/06/27 02:49:07;;;;;;;;;;;;;;;24.15;29.60;82984.91;2089247;28;1003;-67
2021/06/27 02:50:08;;;;;;;;;;;;;;;24.15;29.51;83002.91;2089681;28;793;-67
2021/06/27 02:51:08;;;;;;;;;;;;;;;24.15;29.51;82986.91;2089443;28;899;-68
2021/06/27 02:52:08;;;;;;;;;;;;;;;24.15;29.37;82994.91;2081634;28;801;-67
2021/06/27 02:53:08;;;;;;;;;;;;;;;24.15;29.48;82992.91;2073155;28;672;-68
2021/06/27 02:54:08;;;;;;;;;;;;;;;24.15;29.48;82986.91;2088894;28;881;-68
2021/06/27 02:55:11;;;;;;;;;;;;;;;24.15;29.58;83004.91;2090027;28;1265;-68
2021/06/27 02:56:11;;;;;;;;;;;;;;;24.15;29.82;83022.91;2089047;28;1216;-68
2021/06/27 02:57:11;;;;;;;;;;;;;;;24.15;29.80;83026.91;2088808;28;1019;-68
2021/06/27 02:58:12;;;;;;;;;;;;;;;24.15;29.57;83040.91;2089542;28;1909;-68
2021/06/27 02:59:12;;;;;;;;;;;;;;;24.15;29.63;83026.91;2088816;28;805;-67
2021/06/27 03:00:13;;;;;;;;;;;;;;;24.15;29.72;83046.91;2088787;28;635;-67
2021/06/27 03:01:13;;;;;;;;;;;;;;;24.15;29.61;83016.91;2088879;28;754;-67
2021/06/27 03:02:14;;;;;;;;;;;;;;;24.15;29.57;83012.91;2089410;28;937;-67
2021/06/27 03:03:14;;;;;;;;;;;;;;;24.15;29.65;83052.91;2089208;28;747;-67
2021/06/27 03:04:14;;;;;;;;;;;;;;;24.15;29.92;83044.91;2086867;28;1130;-67
2021/06/27 03:05:14;;;;;;;;;;;;;;;24.15;29.58;83076.91;2080654;28;1237;-67
2021/06/27 03:06:15;;;;;;;;;;;;;;;24.15;29.74;83078.91;2088984;28;1011;-67
2021/06/27 03:07:15;;;;;;;;;;;;;;;24.15;29.63;83046.91;2089859;28;803;-67
2021/06/27 03:08:15;;;;;;;;;;;;;;;24.15;29.72;83036.91;2089545;28;881;-67
2021/06/27 03:09:15;;;;;;;;;;;;;;;24.15;29.65;83048.91;2089873;28;840;-67
2021/06/27 03:10:16;;;;;;;;;;;;;;;24.15;29.61;83042.91;2088773;28;773;-67
2021/06/27 03:11:17;;;;;;;;;;;;;;;24.15;29.51;83056.91;2089166;28;884;-67
2021/06/27 03:12:17;;;;;;;;;;;;;;;24.15;29.63;83074.91;2089288;28;940;-67
2021/06/27 03:13:17;;;;;;;;;;;;;;;24.15;29.92;83068.91;2090215;28;789;-68
2021/06/27 03:14:18;;;;;;;;;;;;;;;24.15;29.58;83038.91;2088750;28;936;-68
2021/06/27 03:15:18;;;;;;;;;;;;;;;24.15;29.77;83082.94;2089558;28;1212;-68
2021/06/27 03:16:19;;;;;;;;;;;;;;;24.15;29.82;83048.91;2089165;28;1093;-67
2021/06/27 03:17:19;;;;;;;;;;;;;;;24.15;29.57;83096.94;2089511;28;785;-68
2021/06/27 03:18:19;;;;;;;;;;;;;;;24.15;29.82;83094.94;2089880;28;1941;-67
2021/06/27 03:19:19;;;;;;;;;;;;;;;24.15;29.73;83080.94;2089376;28;900;-68
2021/06/27 03:20:19;;;;;;;;;;;;;;;24.15;29.64;83098.94;2088676;28;889;-68
2021/06/27 03:21:20;;;;;;;;;;;;;;;24.15;29.67;83074.91;2088918;28;781;-68
2021/06/27 03:22:20;;;;;;;;;;;;;;;24.15;29.70;83062.91;2089843;28;732;-68
2021/06/27 03:23:20;;;;;;;;;;;;;;;24.15;29.75;83070.91;2089130;28;991;-68
2021/06/27 03:24:20;;;;;;;;;;;;;;;24.15;29.96;83084.94;2089220;28;943;-68
2021/06/27 03:25:26;;;;;;;;;;;;;;;24.15;29.92;83106.94;2089468;28;1228;-68
2021/06/27 03:26:26;;;;;;;;;;;;;;;24.15;29.77;83054.91;2089180;28;884;-68
2021/06/27 03:27:26;;;;;;;;;;;;;;;24.15;30.00;83100.94;2090085;28;624;-68
2021/06/27 03:28:31;;;;;;;;;;;;;;;24.15;29.92;83082.94;2089312;28;908;-68
2021/06/27 03:29:31;;;;;;;;;;;;;;;24.15;29.82;83082.94;2089396;28;836;-68
2021/06/27 03:30:32;;;;;;;;;;;;;;;24.15;29.94;83116.94;2080790;28;817;-68
2021/06/27 03:31:32;;;;;;;;;;;;;;;24.15;29.91;83128.94;2073110;28;830;-68
2021/06/27 03:32:32;;;;;;;;;;;;;;;24.15;29.86;83132.94;2080779;28;992;-68
2021/06/27 03:33:32;;;;;;;;;;;;;;;24.15;29.70;83106.94;2081089;28;805;-68
2021/06/27 03:34:33;;;;;;;;;;;;;;;24.15;29.65;83074.91;2080445;28;1212;-67
2021/06/27 03:35:33;;;;;;;;;;;;;;;24.15;29.82;83136.94;2072559;28;1232;-68
2021/06/27 03:36:33;;;;;;;;;;;;;;;24.15;29.75;83082.94;2088806;28;956;-68
2021/06/27 03:37:33;;;;;;;;;;;;;;;24.15;29.85;83134.94;2088979;28;1914;-68
2021/06/27 03:38:43;;;;;;;;;;;;;;;24.15;29.76;83116.94;2072849;28;1204;-68
2021/06/27 03:39:43;;;;;;;;;;;;;;;24.15;29.98;83130.94;2082229;28;935;-68
2021/06/27 03:40:44;;;;;;;;;;;;;;;24.15;29.90;83116.94;2088732;28;1219;-68
2021/06/27 03:41:51;;;;;;;;;;;;;;;24.15;29.63;83122.94;2081120;28;841;-68
2021/06/27 03:42:52;;;;;;;;;;;;;;;24.15;30.02;83154.94;2073745;28;833;-67
2021/06/27 03:43:52;;;;;;;;;;;;;;;24.15;30.00;83208.97;2073493;28;800;-68
2021/06/27 03:44:52;;;;;;;;;;;;;;;24.15;29.98;83156.94;2081136;28;1002;-68
2021/06/27 03:45:52;;;;;;;;;;;;;;;24.15;30.01;83140.94;2089200;28;1333;-68
2021/06/27 03:46:53;;;;;;;;;;;;;;;24.15;29.96;83164.94;2089336;28;1078;-68
2021/06/27 03:47:53;;;;;;;;;;;;;;;24.15;29.95;83180.94;2080761;28;1217;-68
2021/06/27 03:48:53;;;;;;;;;;;;;;;24.15;30.09;83148.94;2072781;28;817;-68
2021/06/27 03:49:53;;;;;;;;;;;;;;;24.15;29.88;83156.94;2080782;28;960;-68
2021/06/27 03:50:53;;;;;;;;;;;;;;;24.15;29.88;83160.94;2080871;28;964;-68
2021/06/27 03:51:54;;;;;;;;;;;;;;;24.15;30.23;83172.94;2088846;28;718;-67
2021/06/27 03:52:54;;;;;;;;;;;;;;;24.15;30.02;83160.94;2080810;28;1165;-68
2021/06/27 03:53:56;;;;;;;;;;;;;;;24.15;30.05;83148.94;2080320;28;921;-68
2021/06/27 03:54:56;;;;;;;;;;;;;;;24.15;30.19;83160.94;2080753;28;1162;-67
2021/06/27 03:55:58;;;;;;;;;;;;;;;24.15;30.02;83134.94;2088945;28;1349;-67
2021/06/27 03:56:58;;;;;;;;;;;;;;;24.15;30.05;83192.94;2089250;28;871;-67
2021/06/27 03:57:58;;;;;;;;;;;;;;;24.15;30.14;83178.94;2088665;28;1965;-67
2021/06/27 03:58:58;;;;;;;;;;;;;;;24.15;30.17;83182.94;2089156;28;865;-67
2021/06/27 03:59:58;;;;;;;;;;;;;;;24.15;30.44;83174.94;2089047;28;801;-67
2021/06/27 04:00:59;;;;;;;;;;;;;;;24.15;30.23;83200.97;2089382;28;731;-67
2021/06/27 04:01:59;;;;;;;;;;;;;;;24.15;30.12;83170.94;2080752;28;980;-68
2021/06/27 04:02:59;;;;;;;;;;;;;;;24.15;30.13;83178.94;2089208;28;896;-67
2021/06/27 04:04:00;;;;;;;;;;;;;;;24.15;30.35;83144.94;2087855;28;926;-67
2021/06/27 04:05:00;;;;;;;;;;;;;;;24.15;30.16;83194.97;2089143;28;863;-67
2021/06/27 04:06:01;;;;;;;;;;;;;;;24.15;29.86;83154.94;2088965;28;1330;-67
2021/06/27 04:07:01;;;;;;;;;;;;;;;24.15;29.91;83122.94;2089246;28;943;-67
2021/06/27 04:08:03;;;;;;;;;;;;;;;24.15;30.27;83166.94;2089716;28;738;-68
2021/06/27 04:09:03;;;;;;;;;;;;;;;24.15;30.21;83192.94;2089025;28;1575;-67
2021/06/27 04:10:04;;;;;;;;;;;;;;;24.15;30.43;83182.94;2089175;28;861;-67
2021/06/27 04:11:04;;;;;;;;;;;;;;;24.15;30.14;83132.94;2089900;28;806;-67
2021/06/27 04:12:04;;;;;;;;;;;;;;;24.15;30.12;83180.94;2088779;28;944;-68
2021/06/27 04:13:04;;;;;;;;;;;;;;;24.15;30.00;83174.94;2088851;28;910;-68
2021/06/27 04:14:05;;;;;;;;;;;;;;;24.15;29.96;83152.94;2087620;28;963;-67
2021/06/27 04:15:05;;;;;;;;;;;;;;;24.15;30.19;83222.97;2079970;28;1256;-67
2021/06/27 04:16:05;;;;;;;;;;;;;;;24.15;30.32;83204.97;2080035;28;956;-67
2021/06/27 04:17:06;;;;;;;;;;;;;;;24.15;30.23;83206.97;2088293;28;1347;-68
2021/06/27 04:18:09;;;;;;;;;;;;;;;24.15;30.44;83176.94;2079870;28;1906;-67
2021/06/27 04:19:09;;;;;;;;;;;;;;;24.15;30.56;83298.97;2088304;28;805;-68
2021/06/27 04:20:10;;;;;;;;;;;;;;;24.15;30.57;83216.97;2079830;28;937;-68
2021/06/27 04:21:10;;;;;;;;;;;;;;;24.15;30.49;83236.97;2079937;28;853;-67
2021/06/27 04:22:10;;;;;;;;;;;;;;;24.15;30.29;83188.94;2089099;28;810;-67
2021/06/27 04:23:11;;;;;;;;;;;;;;;24.15;30.18;83206.97;2090682;28;753;-67
2021/06/27 04:24:11;;;;;;;;;;;;;;;24.15;30.31;83264.97;2089535;28;1463;-67
2021/06/27 04:25:11;;;;;;;;;;;;;;;24.15;30.26;83196.97;2090041;28;1299;-68
2021/06/27 04:26:11;;;;;;;;;;;;;;;24.15;30.35;83186.94;2090520;28;1012;-67
2021/06/27 04:27:11;;;;;;;;;;;;;;;24.15;30.28;83168.94;2090003;28;928;-67
2021/06/27 04:28:12;;;;;;;;;;;;;;;24.15;30.57;83188.94;2090311;28;793;-67
2021/06/27 04:29:16;;;;;;;;;;;;;;;24.15;30.09;83182.94;2090831;28;841;-67
2021/06/27 04:30:16;;;;;;;;;;;;;;;24.15;30.15;83182.94;2091487;28;896;-68
2021/06/27 04:31:16;;;;;;;;;;;;;;;24.15;30.70;83192.94;2090358;28;834;-67
2021/06/27 04:32:17;;;;;;;;;;;;;;;24.15;30.38;83246.97;2090655;28;651;-68
2021/06/27 04:33:17;;;;;;;;;;;;;;;24.15;30.70;83220.97;2091059;28;932;-67
2021/06/27 04:34:20;;;;;;;;;;;;;;;24.15;30.40;83210.97;2090100;28;925;-67
2021/06/27 04:35:20;;;;;;;;;;;;;;;24.15;30.47;83204.97;2090607;28;1305;-67
2021/06/27 04:36:20;;;;;;;;;;;;;;;24.15;30.58;83270.97;2090856;28;1062;-67
2021/06/27 04:37:20;;;;;;;;;;;;;;;24.15;30.59;83210.97;2082158;28;1374;-67
2021/06/27 04:38:23;;;;;;;;;;;;;;;24.15;30.51;83246.97;2082463;28;1969;-67
2021/06/27 04:39:23;;;;;;;;;;;;;;;24.15;30.32;83206.97;2090266;28;1401;-67
2021/06/27 04:40:24;;;;;;;;;;;;;;;24.15;30.43;83216.97;2090722;28;746;-67
2021/06/27 04:41:24;;;;;;;;;;;;;;;24.15;30.61;83202.97;2082193;28;1000;-68
2021/06/27 04:42:24;;;;;;;;;;;;;;;24.15;30.47;83214.97;2082280;28;976;-67
2021/06/27 04:43:24;;;;;;;;;;;;;;;24.15;30.78;83204.97;2090268;28;1051;-67
2021/06/27 04:44:24;;;;;;;;;;;;;;;24.15;30.53;83204.97;2081932;28;809;-67
2021/06/27 04:45:25;;;;;;;;;;;;;;;24.15;30.54;83196.97;2090151;28;1236;-67
2021/06/27 04:46:25;;;;;;;;;;;;;;;24.15;30.46;83210.97;2090533;28;967;-67
2021/06/27 04:47:25;;;;;;;;;;;;;;;24.15;30.51;83196.97;2090469;28;845;-67
2021/06/27 04:48:25;;;;;;;;;;;;;;;24.15;30.60;83212.97;2081948;28;1070;-67
2021/06/27 04:49:25;;;;;;;;;;;;;;;24.15;30.70;83178.94;2090663;28;821;-67
2021/06/27 04:50:26;;;;;;;;;;;;;;;24.15;30.48;83226.97;2082390;28;774;-67
2021/06/27 04:51:26;;;;;;;;;;;;;;;24.15;30.69;83196.97;2073836;28;988;-67
2021/06/27 04:52:26;;;;;;;;;;;;;;;24.15;30.51;83198.97;2082079;28;818;-67
2021/06/27 04:53:26;;;;;;;;;;;;;;;24.15;30.54;83224.97;2089974;28;777;-67
2021/06/27 04:54:26;;;;;;;;;;;;;;;24.15;30.44;83242.97;2089800;28;900;-67
2021/06/27 04:55:27;;;;;;;;;;;;;;;24.15;30.51;83192.94;2081988;28;1212;-67
2021/06/27 04:56:27;;;;;;;;;;;;;;;24.15;30.55;83230.97;2073981;28;762;-67
2021/06/27 04:57:27;;;;;;;;;;;;;;;24.15;30.35;83218.97;2074082;28;999;-67
2021/06/27 04:58:27;;;;;;;;;;;;;;;24.15;30.67;83176.94;2065739;28;1903;-67
2021/06/27 04:59:27;;;;;;;;;;;;;;;24.15;30.76;83206.97;2082076;28;811;-67
2021/06/27 05:00:29;;;;;;;;;;;;;;;24.15;30.80;83188.94;2098648;28;759;-67
2021/06/27 05:01:29;;;;;;;;;;;;;;;24.15;30.51;83208.97;2090559;28;904;-67
2021/06/27 05:02:30;;;;;;;;;;;;;;;24.15;30.78;83220.97;2082026;28;1000;-67
2021/06/27 05:03:30;;;;;;;;;;;;;;;24.15;30.91;83224.97;2090418;28;896;-67
2021/06/27 05:04:30;;;;;;;;;;;;;;;24.15;30.75;83184.94;2087864;28;1150;-67
2021/06/27 05:05:30;;;;;;;;;;;;;;;24.15;30.74;83184.94;2076728;28;1323;-67
2021/06/27 05:06:30;;;;;;;;;;;;;;;24.15;30.63;83220.97;2070269;28;1406;-67
2021/06/27 05:07:31;;;;;;;;;;;;;;;24.15;30.44;83190.94;2069462;28;1411;-67
2021/06/27 05:08:31;;;;;;;;;;;;;;;24.15;30.62;83198.97;2079670;28;735;-67
2021/06/27 05:09:31;;;;;;;;;;;;;;;24.15;30.80;83206.97;2080004;28;908;-67
2021/06/27 05:10:31;;;;;;;;;;;;;;;24.15;30.96;83212.97;2080424;28;892;-67
2021/06/27 05:11:32;;;;;;;;;;;;;;;24.15;30.64;83240.97;2080182;28;951;-67
2021/06/27 05:12:33;;;;;;;;;;;;;;;24.15;30.82;83184.94;2079811;28;846;-67
2021/06/27 05:13:33;;;;;;;;;;;;;;;24.15;30.53;83212.97;2071921;28;817;-67
2021/06/27 05:14:33;;;;;;;;;;;;;;;24.15;30.77;83206.97;2062844;28;856;-67
2021/06/27 05:15:33;;;;;;;;;;;;;;;24.15;30.61;83214.97;2063748;28;1307;-67
2021/06/27 05:16:33;;;;;;;;;;;;;;;24.15;30.42;83186.94;2079281;28;936;-67
2021/06/27 05:17:34;;;;;;;;;;;;;;;24.15;30.74;83234.97;2080457;28;810;-67
2021/06/27 05:18:34;;;;;;;;;;;;;;;24.15;30.78;83168.94;2079783;28;1977;-67
2021/06/27 05:19:34;;;;;;;;;;;;;;;24.15;30.61;83206.97;2071902;28;984;-67
2021/06/27 05:20:34;;;;;;;;;;;;;;;24.15;30.61;83222.97;2072979;28;1823;-67
2021/06/27 05:21:34;;;;;;;;;;;;;;;24.15;30.47;83190.94;2079331;28;1300;-68